sensor_id;sensor_type;location;lat;lon;timestamp;P1;durP1;ratioP1;P2;durP2;ratioP2
61096;SDS011;46977;50.936;6.908;2023-09-30T00:01:38;4.15;;;1.75;;
61096;SDS011;46977;50.936;6.908;2023-09-30T00:04:41;4.15;;;1.65;;
61096;SDS011;46977;50.936;6.908;2023-09-30T00:07:45;6.20;;;1.63;;
61096;SDS011;46977;50.936;6.908;2023-09-30T00:10:47;5.50;;;1.75;;
61096;SDS011;46977;50.936;6.908;2023-09-30T00:13:49;4.25;;;1.38;;
61096;SDS011;46977;50.936;6.908;2023-09-30T00:16:52;3.05;;;2.15;;
61096;SDS011;46977;50.936;6.908;2023-09-30T00:19:54;5.00;;;1.67;;
61096;SDS011;46977;50.936;6.908;2023-09-30T00:22:58;5.40;;;1.90;;
61096;SDS011;46977;50.936;6.908;2023-09-30T00:26:00;5.57;;;1.50;;
61096;SDS011;46977;50.936;6.908;2023-09-30T00:29:02;4.78;;;1.92;;
61096;SDS011;46977;50.936;6.908;2023-09-30T00:32:08;6.63;;;1.85;;
61096;SDS011;46977;50.936;6.908;2023-09-30T00:35:11;4.75;;;1.90;;
61096;SDS011;46977;50.936;6.908;2023-09-30T00:38:15;4.32;;;2.22;;
61096;SDS011;46977;50.936;6.908;2023-09-30T00:41:17;5.25;;;2.28;;
61096;SDS011;46977;50.936;6.908;2023-09-30T00:44:19;5.18;;;1.92;;
61096;SDS011;46977;50.936;6.908;2023-09-30T00:47:21;5.70;;;2.45;;
61096;SDS011;46977;50.936;6.908;2023-09-30T00:50:24;4.07;;;1.38;;
61096;SDS011;46977;50.936;6.908;2023-09-30T00:53:30;3.92;;;2.00;;
61096;SDS011;46977;50.936;6.908;2023-09-30T00:56:32;5.15;;;2.30;;
61096;SDS011;46977;50.936;6.908;2023-09-30T00:59:35;5.68;;;2.00;;
61096;SDS011;46977;50.936;6.908;2023-09-30T01:02:38;5.35;;;2.17;;
61096;SDS011;46977;50.936;6.908;2023-09-30T01:05:41;7.70;;;2.80;;
61096;SDS011;46977;50.936;6.908;2023-09-30T01:08:46;5.50;;;1.90;;
61096;SDS011;46977;50.936;6.908;2023-09-30T01:11:48;4.50;;;2.13;;
61096;SDS011;46977;50.936;6.908;2023-09-30T01:14:56;3.42;;;2.25;;
61096;SDS011;46977;50.936;6.908;2023-09-30T01:17:59;6.15;;;1.92;;
61096;SDS011;46977;50.936;6.908;2023-09-30T01:21:03;4.20;;;2.10;;
61096;SDS011;46977;50.936;6.908;2023-09-30T01:24:08;8.68;;;2.47;;
61096;SDS011;46977;50.936;6.908;2023-09-30T01:27:10;5.63;;;2.10;;
61096;SDS011;46977;50.936;6.908;2023-09-30T01:30:14;3.63;;;1.75;;
61096;SDS011;46977;50.936;6.908;2023-09-30T01:33:17;4.22;;;1.80;;
61096;SDS011;46977;50.936;6.908;2023-09-30T01:36:20;7.50;;;2.45;;
61096;SDS011;46977;50.936;6.908;2023-09-30T01:39:24;4.38;;;1.95;;
61096;SDS011;46977;50.936;6.908;2023-09-30T01:42:27;4.80;;;1.50;;
61096;SDS011;46977;50.936;6.908;2023-09-30T01:45:29;6.25;;;1.65;;
61096;SDS011;46977;50.936;6.908;2023-09-30T01:48:32;4.30;;;1.70;;
61096;SDS011;46977;50.936;6.908;2023-09-30T01:51:34;4.25;;;1.92;;
61096;SDS011;46977;50.936;6.908;2023-09-30T01:54:38;7.28;;;2.05;;
61096;SDS011;46977;50.936;6.908;2023-09-30T01:57:40;7.00;;;2.38;;
61096;SDS011;46977;50.936;6.908;2023-09-30T02:00:43;3.83;;;1.80;;
61096;SDS011;46977;50.936;6.908;2023-09-30T02:03:46;3.78;;;1.98;;
61096;SDS011;46977;50.936;6.908;2023-09-30T02:06:49;4.38;;;2.00;;
61096;SDS011;46977;50.936;6.908;2023-09-30T02:09:52;6.25;;;2.13;;
61096;SDS011;46977;50.936;6.908;2023-09-30T02:12:55;6.03;;;2.58;;
61096;SDS011;46977;50.936;6.908;2023-09-30T02:15:57;5.53;;;2.30;;
61096;SDS011;46977;50.936;6.908;2023-09-30T02:18:59;3.28;;;1.80;;
61096;SDS011;46977;50.936;6.908;2023-09-30T02:22:02;7.80;;;2.55;;
61096;SDS011;46977;50.936;6.908;2023-09-30T02:25:06;5.53;;;2.40;;
61096;SDS011;46977;50.936;6.908;2023-09-30T02:28:09;5.72;;;2.25;;
61096;SDS011;46977;50.936;6.908;2023-09-30T02:31:12;6.07;;;1.83;;
61096;SDS011;46977;50.936;6.908;2023-09-30T02:34:14;3.33;;;2.08;;
61096;SDS011;46977;50.936;6.908;2023-09-30T02:37:17;8.30;;;2.58;;
61096;SDS011;46977;50.936;6.908;2023-09-30T02:40:21;5.35;;;2.15;;
61096;SDS011;46977;50.936;6.908;2023-09-30T02:43:26;8.65;;;2.78;;
61096;SDS011;46977;50.936;6.908;2023-09-30T02:46:30;4.85;;;1.77;;
61096;SDS011;46977;50.936;6.908;2023-09-30T02:49:33;3.63;;;2.28;;
61096;SDS011;46977;50.936;6.908;2023-09-30T02:52:36;5.18;;;2.20;;
61096;SDS011;46977;50.936;6.908;2023-09-30T02:55:40;8.40;;;2.58;;
61096;SDS011;46977;50.936;6.908;2023-09-30T02:58:45;4.93;;;2.33;;
61096;SDS011;46977;50.936;6.908;2023-09-30T03:01:48;8.10;;;2.53;;
61096;SDS011;46977;50.936;6.908;2023-09-30T03:04:50;10.05;;;2.42;;
61096;SDS011;46977;50.936;6.908;2023-09-30T03:07:54;4.75;;;2.53;;
61096;SDS011;46977;50.936;6.908;2023-09-30T03:10:58;5.63;;;2.75;;
61096;SDS011;46977;50.936;6.908;2023-09-30T03:14:00;6.75;;;2.63;;
61096;SDS011;46977;50.936;6.908;2023-09-30T03:17:02;6.32;;;3.55;;
61096;SDS011;46977;50.936;6.908;2023-09-30T03:20:05;6.03;;;3.30;;
61096;SDS011;46977;50.936;6.908;2023-09-30T03:23:12;7.63;;;3.03;;
61096;SDS011;46977;50.936;6.908;2023-09-30T03:26:17;4.80;;;2.53;;
61096;SDS011;46977;50.936;6.908;2023-09-30T03:29:19;6.75;;;2.70;;
61096;SDS011;46977;50.936;6.908;2023-09-30T03:32:22;6.15;;;2.88;;
61096;SDS011;46977;50.936;6.908;2023-09-30T03:35:24;5.90;;;3.20;;
61096;SDS011;46977;50.936;6.908;2023-09-30T03:38:27;7.55;;;3.15;;
61096;SDS011;46977;50.936;6.908;2023-09-30T03:41:31;6.20;;;2.67;;
61096;SDS011;46977;50.936;6.908;2023-09-30T03:44:33;9.93;;;3.55;;
61096;SDS011;46977;50.936;6.908;2023-09-30T03:47:35;7.60;;;2.90;;
61096;SDS011;46977;50.936;6.908;2023-09-30T03:50:38;4.03;;;2.88;;
61096;SDS011;46977;50.936;6.908;2023-09-30T03:56:45;5.22;;;2.30;;
61096;SDS011;46977;50.936;6.908;2023-09-30T03:59:51;6.82;;;2.65;;
61096;SDS011;46977;50.936;6.908;2023-09-30T04:02:54;6.57;;;2.88;;
61096;SDS011;46977;50.936;6.908;2023-09-30T04:06:00;3.13;;;2.25;;
61096;SDS011;46977;50.936;6.908;2023-09-30T04:09:04;6.68;;;2.50;;
61096;SDS011;46977;50.936;6.908;2023-09-30T04:12:12;8.55;;;2.78;;
61096;SDS011;46977;50.936;6.908;2023-09-30T04:15:15;5.60;;;3.10;;
61096;SDS011;46977;50.936;6.908;2023-09-30T04:18:17;6.35;;;2.97;;
61096;SDS011;46977;50.936;6.908;2023-09-30T04:21:22;6.30;;;2.78;;
61096;SDS011;46977;50.936;6.908;2023-09-30T04:24:24;8.48;;;3.10;;
61096;SDS011;46977;50.936;6.908;2023-09-30T04:27:28;5.05;;;2.28;;
61096;SDS011;46977;50.936;6.908;2023-09-30T04:30:30;4.30;;;2.38;;
61096;SDS011;46977;50.936;6.908;2023-09-30T04:33:34;5.68;;;3.08;;
61096;SDS011;46977;50.936;6.908;2023-09-30T04:36:37;6.97;;;2.60;;
61096;SDS011;46977;50.936;6.908;2023-09-30T04:39:40;5.97;;;2.28;;
61096;SDS011;46977;50.936;6.908;2023-09-30T04:42:44;6.80;;;3.05;;
61096;SDS011;46977;50.936;6.908;2023-09-30T04:45:46;9.57;;;3.22;;
61096;SDS011;46977;50.936;6.908;2023-09-30T04:48:49;5.78;;;2.10;;
61096;SDS011;46977;50.936;6.908;2023-09-30T04:51:54;4.60;;;2.55;;
61096;SDS011;46977;50.936;6.908;2023-09-30T04:54:56;5.30;;;2.53;;
61096;SDS011;46977;50.936;6.908;2023-09-30T04:58:00;7.18;;;2.50;;
61096;SDS011;46977;50.936;6.908;2023-09-30T05:01:04;4.60;;;2.65;;
61096;SDS011;46977;50.936;6.908;2023-09-30T05:04:10;6.75;;;2.47;;
61096;SDS011;46977;50.936;6.908;2023-09-30T05:07:13;4.05;;;2.50;;
61096;SDS011;46977;50.936;6.908;2023-09-30T05:10:15;4.85;;;2.65;;
61096;SDS011;46977;50.936;6.908;2023-09-30T05:13:19;6.60;;;2.33;;
61096;SDS011;46977;50.936;6.908;2023-09-30T05:16:22;5.30;;;2.60;;
61096;SDS011;46977;50.936;6.908;2023-09-30T05:19:24;4.75;;;2.10;;
61096;SDS011;46977;50.936;6.908;2023-09-30T05:22:27;5.18;;;2.20;;
61096;SDS011;46977;50.936;6.908;2023-09-30T05:25:29;6.15;;;2.00;;
61096;SDS011;46977;50.936;6.908;2023-09-30T05:28:34;4.75;;;2.65;;
61096;SDS011;46977;50.936;6.908;2023-09-30T05:31:36;6.03;;;2.28;;
61096;SDS011;46977;50.936;6.908;2023-09-30T05:34:39;6.40;;;3.63;;
61096;SDS011;46977;50.936;6.908;2023-09-30T05:37:41;6.07;;;3.42;;
61096;SDS011;46977;50.936;6.908;2023-09-30T05:40:44;5.95;;;2.67;;
61096;SDS011;46977;50.936;6.908;2023-09-30T05:43:47;5.43;;;2.30;;
61096;SDS011;46977;50.936;6.908;2023-09-30T05:46:50;4.15;;;2.70;;
61096;SDS011;46977;50.936;6.908;2023-09-30T05:49:52;7.88;;;3.03;;
61096;SDS011;46977;50.936;6.908;2023-09-30T05:52:54;6.25;;;2.78;;
61096;SDS011;46977;50.936;6.908;2023-09-30T05:55:58;9.63;;;2.80;;
61096;SDS011;46977;50.936;6.908;2023-09-30T05:59:07;8.20;;;2.80;;
61096;SDS011;46977;50.936;6.908;2023-09-30T06:02:09;6.57;;;2.92;;
61096;SDS011;46977;50.936;6.908;2023-09-30T06:05:12;6.82;;;2.83;;
61096;SDS011;46977;50.936;6.908;2023-09-30T06:08:17;5.60;;;2.67;;
61096;SDS011;46977;50.936;6.908;2023-09-30T06:11:20;4.65;;;2.47;;
61096;SDS011;46977;50.936;6.908;2023-09-30T06:14:28;6.10;;;2.28;;
61096;SDS011;46977;50.936;6.908;2023-09-30T06:17:32;3.88;;;2.05;;
61096;SDS011;46977;50.936;6.908;2023-09-30T06:20:35;7.05;;;2.45;;
61096;SDS011;46977;50.936;6.908;2023-09-30T06:23:37;4.35;;;2.65;;
61096;SDS011;46977;50.936;6.908;2023-09-30T06:26:39;5.70;;;2.28;;
61096;SDS011;46977;50.936;6.908;2023-09-30T06:29:43;6.63;;;2.35;;
61096;SDS011;46977;50.936;6.908;2023-09-30T06:32:46;5.47;;;2.15;;
61096;SDS011;46977;50.936;6.908;2023-09-30T06:35:48;4.78;;;2.08;;
61096;SDS011;46977;50.936;6.908;2023-09-30T06:38:53;2.65;;;1.48;;
61096;SDS011;46977;50.936;6.908;2023-09-30T06:41:56;2.33;;;1.95;;
61096;SDS011;46977;50.936;6.908;2023-09-30T06:44:59;4.82;;;2.40;;
61096;SDS011;46977;50.936;6.908;2023-09-30T06:48:02;5.00;;;2.85;;
61096;SDS011;46977;50.936;6.908;2023-09-30T06:51:05;5.75;;;3.38;;
61096;SDS011;46977;50.936;6.908;2023-09-30T06:54:07;5.63;;;2.55;;
61096;SDS011;46977;50.936;6.908;2023-09-30T06:57:10;7.07;;;3.58;;
61096;SDS011;46977;50.936;6.908;2023-09-30T07:00:14;6.65;;;2.90;;
61096;SDS011;46977;50.936;6.908;2023-09-30T07:03:16;5.93;;;2.70;;
61096;SDS011;46977;50.936;6.908;2023-09-30T07:06:22;4.72;;;2.67;;
61096;SDS011;46977;50.936;6.908;2023-09-30T07:09:25;5.43;;;3.08;;
61096;SDS011;46977;50.936;6.908;2023-09-30T07:12:31;5.82;;;3.72;;
61096;SDS011;46977;50.936;6.908;2023-09-30T07:15:39;5.22;;;3.88;;
61096;SDS011;46977;50.936;6.908;2023-09-30T07:18:41;4.90;;;3.28;;
61096;SDS011;46977;50.936;6.908;2023-09-30T07:21:44;6.45;;;3.17;;
61096;SDS011;46977;50.936;6.908;2023-09-30T07:25:04;4.32;;;3.13;;
61096;SDS011;46977;50.936;6.908;2023-09-30T07:28:07;6.07;;;3.17;;
61096;SDS011;46977;50.936;6.908;2023-09-30T07:31:16;5.63;;;3.38;;
61096;SDS011;46977;50.936;6.908;2023-09-30T07:34:19;4.35;;;3.00;;
61096;SDS011;46977;50.936;6.908;2023-09-30T07:37:21;5.22;;;3.90;;
61096;SDS011;46977;50.936;6.908;2023-09-30T07:40:23;4.43;;;3.08;;
61096;SDS011;46977;50.936;6.908;2023-09-30T07:43:27;4.22;;;2.70;;
61096;SDS011;46977;50.936;6.908;2023-09-30T07:46:31;4.88;;;3.47;;
61096;SDS011;46977;50.936;6.908;2023-09-30T07:49:34;5.95;;;4.10;;
61096;SDS011;46977;50.936;6.908;2023-09-30T07:52:36;5.68;;;3.20;;
61096;SDS011;46977;50.936;6.908;2023-09-30T07:55:38;4.43;;;3.35;;
61096;SDS011;46977;50.936;6.908;2023-09-30T07:58:41;3.47;;;3.08;;
61096;SDS011;46977;50.936;6.908;2023-09-30T08:01:45;5.75;;;3.05;;
61096;SDS011;46977;50.936;6.908;2023-09-30T08:04:49;3.72;;;3.08;;
61096;SDS011;46977;50.936;6.908;2023-09-30T08:07:52;4.95;;;3.30;;
61096;SDS011;46977;50.936;6.908;2023-09-30T08:10:55;4.88;;;3.40;;
61096;SDS011;46977;50.936;6.908;2023-09-30T08:13:57;4.68;;;3.42;;
61096;SDS011;46977;50.936;6.908;2023-09-30T08:17:02;4.05;;;3.47;;
61096;SDS011;46977;50.936;6.908;2023-09-30T08:20:05;7.03;;;3.70;;
61096;SDS011;46977;50.936;6.908;2023-09-30T08:23:08;3.67;;;3.28;;
61096;SDS011;46977;50.936;6.908;2023-09-30T08:26:10;3.58;;;3.17;;
61096;SDS011;46977;50.936;6.908;2023-09-30T08:29:13;5.45;;;3.25;;
61096;SDS011;46977;50.936;6.908;2023-09-30T08:32:17;4.63;;;3.13;;
61096;SDS011;46977;50.936;6.908;2023-09-30T08:35:19;3.90;;;3.60;;
61096;SDS011;46977;50.936;6.908;2023-09-30T08:38:24;3.95;;;3.65;;
61096;SDS011;46977;50.936;6.908;2023-09-30T08:41:31;5.78;;;3.60;;
61096;SDS011;46977;50.936;6.908;2023-09-30T08:44:36;4.10;;;3.70;;
61096;SDS011;46977;50.936;6.908;2023-09-30T08:47:41;5.40;;;4.13;;
61096;SDS011;46977;50.936;6.908;2023-09-30T08:50:44;4.57;;;4.00;;
61096;SDS011;46977;50.936;6.908;2023-09-30T08:53:47;4.65;;;4.20;;
61096;SDS011;46977;50.936;6.908;2023-09-30T08:56:51;4.78;;;3.72;;
61096;SDS011;46977;50.936;6.908;2023-09-30T08:59:54;5.40;;;3.88;;
61096;SDS011;46977;50.936;6.908;2023-09-30T09:02:58;5.63;;;3.90;;
61096;SDS011;46977;50.936;6.908;2023-09-30T09:06:00;4.65;;;4.28;;
61096;SDS011;46977;50.936;6.908;2023-09-30T09:09:15;6.93;;;4.38;;
61096;SDS011;46977;50.936;6.908;2023-09-30T09:12:21;5.25;;;3.88;;
61096;SDS011;46977;50.936;6.908;2023-09-30T09:15:24;4.65;;;4.25;;
61096;SDS011;46977;50.936;6.908;2023-09-30T09:18:32;4.93;;;3.97;;
61096;SDS011;46977;50.936;6.908;2023-09-30T09:21:52;5.38;;;4.60;;
61096;SDS011;46977;50.936;6.908;2023-09-30T09:24:56;5.88;;;5.28;;
61096;SDS011;46977;50.936;6.908;2023-09-30T09:28:01;7.30;;;4.93;;
61096;SDS011;46977;50.936;6.908;2023-09-30T09:31:18;4.93;;;4.38;;
61096;SDS011;46977;50.936;6.908;2023-09-30T09:34:23;5.90;;;4.18;;
61096;SDS011;46977;50.936;6.908;2023-09-30T09:37:27;6.43;;;4.45;;
61096;SDS011;46977;50.936;6.908;2023-09-30T09:40:30;5.10;;;4.18;;
61096;SDS011;46977;50.936;6.908;2023-09-30T09:43:33;6.35;;;4.18;;
61096;SDS011;46977;50.936;6.908;2023-09-30T09:46:38;5.53;;;4.03;;
61096;SDS011;46977;50.936;6.908;2023-09-30T09:49:42;5.30;;;3.90;;
61096;SDS011;46977;50.936;6.908;2023-09-30T09:52:44;8.00;;;4.53;;
61096;SDS011;46977;50.936;6.908;2023-09-30T09:55:49;7.30;;;4.30;;
61096;SDS011;46977;50.936;6.908;2023-09-30T09:58:52;7.53;;;6.20;;
61096;SDS011;46977;50.936;6.908;2023-09-30T10:01:54;8.50;;;6.28;;
61096;SDS011;46977;50.936;6.908;2023-09-30T10:04:58;7.95;;;5.35;;
61096;SDS011;46977;50.936;6.908;2023-09-30T10:08:04;8.27;;;5.43;;
61096;SDS011;46977;50.936;6.908;2023-09-30T10:11:09;8.85;;;5.82;;
61096;SDS011;46977;50.936;6.908;2023-09-30T10:14:29;8.38;;;6.15;;
61096;SDS011;46977;50.936;6.908;2023-09-30T10:21:07;7.68;;;5.38;;
61096;SDS011;46977;50.936;6.908;2023-09-30T10:24:30;6.70;;;4.57;;
61096;SDS011;46977;50.936;6.908;2023-09-30T10:27:36;7.22;;;4.30;;
61096;SDS011;46977;50.936;6.908;2023-09-30T10:30:43;7.18;;;4.75;;
61096;SDS011;46977;50.936;6.908;2023-09-30T10:34:27;6.00;;;4.22;;
61096;SDS011;46977;50.936;6.908;2023-09-30T10:37:31;8.40;;;4.38;;
61096;SDS011;46977;50.936;6.908;2023-09-30T10:40:36;7.63;;;4.68;;
61096;SDS011;46977;50.936;6.908;2023-09-30T10:43:42;7.18;;;4.32;;
61096;SDS011;46977;50.936;6.908;2023-09-30T10:46:48;7.78;;;4.43;;
61096;SDS011;46977;50.936;6.908;2023-09-30T10:49:52;5.43;;;3.90;;
61096;SDS011;46977;50.936;6.908;2023-09-30T10:53:07;4.20;;;3.20;;
61096;SDS011;46977;50.936;6.908;2023-09-30T10:56:14;5.78;;;3.63;;
61096;SDS011;46977;50.936;6.908;2023-09-30T10:59:18;5.47;;;2.92;;
61096;SDS011;46977;50.936;6.908;2023-09-30T11:02:20;3.65;;;2.88;;
61096;SDS011;46977;50.936;6.908;2023-09-30T11:05:23;3.92;;;3.08;;
61096;SDS011;46977;50.936;6.908;2023-09-30T11:08:50;7.05;;;2.80;;
61096;SDS011;46977;50.936;6.908;2023-09-30T11:11:53;6.47;;;3.35;;
61096;SDS011;46977;50.936;6.908;2023-09-30T11:15:01;7.30;;;2.47;;
61096;SDS011;46977;50.936;6.908;2023-09-30T11:18:12;6.90;;;2.15;;
61096;SDS011;46977;50.936;6.908;2023-09-30T11:21:15;4.18;;;2.22;;
61096;SDS011;46977;50.936;6.908;2023-09-30T11:24:20;4.45;;;2.05;;
61096;SDS011;46977;50.936;6.908;2023-09-30T11:27:24;5.25;;;1.77;;
61096;SDS011;46977;50.936;6.908;2023-09-30T11:30:28;4.30;;;1.60;;
61096;SDS011;46977;50.936;6.908;2023-09-30T11:33:30;3.88;;;1.58;;
61096;SDS011;46977;50.936;6.908;2023-09-30T11:36:34;3.47;;;1.52;;
61096;SDS011;46977;50.936;6.908;2023-09-30T11:39:40;4.05;;;1.40;;
61096;SDS011;46977;50.936;6.908;2023-09-30T11:46:11;4.18;;;1.15;;
61096;SDS011;46977;50.936;6.908;2023-09-30T11:49:26;2.60;;;1.10;;
61096;SDS011;46977;50.936;6.908;2023-09-30T11:52:30;2.67;;;1.10;;
61096;SDS011;46977;50.936;6.908;2023-09-30T11:55:33;1.65;;;0.90;;
61096;SDS011;46977;50.936;6.908;2023-09-30T11:58:36;3.08;;;1.25;;
61096;SDS011;46977;50.936;6.908;2023-09-30T12:01:38;2.72;;;1.05;;
61096;SDS011;46977;50.936;6.908;2023-09-30T12:04:41;3.67;;;1.25;;
61096;SDS011;46977;50.936;6.908;2023-09-30T12:07:46;3.03;;;1.65;;
61096;SDS011;46977;50.936;6.908;2023-09-30T12:10:50;4.93;;;1.95;;
61096;SDS011;46977;50.936;6.908;2023-09-30T12:14:00;3.92;;;1.60;;
61096;SDS011;46977;50.936;6.908;2023-09-30T12:17:02;3.42;;;1.33;;
61096;SDS011;46977;50.936;6.908;2023-09-30T12:20:16;2.77;;;1.30;;
61096;SDS011;46977;50.936;6.908;2023-09-30T12:23:22;4.82;;;1.65;;
61096;SDS011;46977;50.936;6.908;2023-09-30T12:26:55;3.50;;;1.58;;
61096;SDS011;46977;50.936;6.908;2023-09-30T12:30:00;2.15;;;1.25;;
61096;SDS011;46977;50.936;6.908;2023-09-30T12:33:05;3.45;;;1.25;;
61096;SDS011;46977;50.936;6.908;2023-09-30T12:36:22;2.75;;;1.33;;
61096;SDS011;46977;50.936;6.908;2023-09-30T12:39:26;3.38;;;1.70;;
61096;SDS011;46977;50.936;6.908;2023-09-30T12:42:34;3.30;;;1.15;;
61096;SDS011;46977;50.936;6.908;2023-09-30T12:45:37;2.58;;;1.20;;
61096;SDS011;46977;50.936;6.908;2023-09-30T12:48:40;3.83;;;1.17;;
61096;SDS011;46977;50.936;6.908;2023-09-30T12:51:46;3.47;;;1.40;;
61096;SDS011;46977;50.936;6.908;2023-09-30T12:54:49;4.72;;;1.60;;
61096;SDS011;46977;50.936;6.908;2023-09-30T12:57:53;3.75;;;1.17;;
61096;SDS011;46977;50.936;6.908;2023-09-30T13:00:56;3.38;;;1.48;;
61096;SDS011;46977;50.936;6.908;2023-09-30T13:04:16;3.90;;;1.73;;
61096;SDS011;46977;50.936;6.908;2023-09-30T13:07:20;2.97;;;1.58;;
61096;SDS011;46977;50.936;6.908;2023-09-30T13:10:24;5.75;;;1.40;;
61096;SDS011;46977;50.936;6.908;2023-09-30T13:13:45;2.13;;;1.20;;
61096;SDS011;46977;50.936;6.908;2023-09-30T13:16:52;2.50;;;1.35;;
61096;SDS011;46977;50.936;6.908;2023-09-30T13:19:57;3.13;;;1.55;;
61096;SDS011;46977;50.936;6.908;2023-09-30T13:23:00;4.05;;;1.48;;
61096;SDS011;46977;50.936;6.908;2023-09-30T13:26:06;4.82;;;1.63;;
61096;SDS011;46977;50.936;6.908;2023-09-30T13:33:59;3.17;;;1.20;;
61096;SDS011;46977;50.936;6.908;2023-09-30T13:37:02;3.13;;;1.25;;
61096;SDS011;46977;50.936;6.908;2023-09-30T13:40:07;3.15;;;1.23;;
61096;SDS011;46977;50.936;6.908;2023-09-30T13:44:06;3.22;;;1.00;;
61096;SDS011;46977;50.936;6.908;2023-09-30T13:56:15;2.78;;;1.00;;
61096;SDS011;46977;50.936;6.908;2023-09-30T13:59:50;2.42;;;1.05;;
61096;SDS011;46977;50.936;6.908;2023-09-30T14:03:43;2.38;;;1.10;;
61096;SDS011;46977;50.936;6.908;2023-09-30T14:11:44;2.97;;;1.20;;
61096;SDS011;46977;50.936;6.908;2023-09-30T14:15:43;3.65;;;1.00;;
61096;SDS011;46977;50.936;6.908;2023-09-30T14:19:23;5.75;;;1.20;;
61096;SDS011;46977;50.936;6.908;2023-09-30T14:22:35;2.72;;;1.30;;
61096;SDS011;46977;50.936;6.908;2023-09-30T14:26:06;1.70;;;1.05;;
61096;SDS011;46977;50.936;6.908;2023-09-30T14:29:42;1.73;;;1.00;;
61096;SDS011;46977;50.936;6.908;2023-09-30T14:32:58;2.55;;;1.05;;
61096;SDS011;46977;50.936;6.908;2023-09-30T14:36:04;3.92;;;1.20;;
61096;SDS011;46977;50.936;6.908;2023-09-30T14:39:48;2.92;;;0.88;;
61096;SDS011;46977;50.936;6.908;2023-09-30T14:43:17;2.15;;;0.95;;
61096;SDS011;46977;50.936;6.908;2023-09-30T14:46:34;4.30;;;1.75;;
61096;SDS011;46977;50.936;6.908;2023-09-30T14:50:02;1.88;;;1.20;;
61096;SDS011;46977;50.936;6.908;2023-09-30T14:53:26;2.95;;;1.30;;
61096;SDS011;46977;50.936;6.908;2023-09-30T14:56:39;2.92;;;1.40;;
61096;SDS011;46977;50.936;6.908;2023-09-30T15:04:55;3.88;;;0.80;;
61096;SDS011;46977;50.936;6.908;2023-09-30T15:08:10;2.33;;;1.13;;
61096;SDS011;46977;50.936;6.908;2023-09-30T15:12:13;2.95;;;0.82;;
61096;SDS011;46977;50.936;6.908;2023-09-30T15:15:22;1.80;;;0.90;;
61096;SDS011;46977;50.936;6.908;2023-09-30T15:18:28;4.15;;;1.13;;
61096;SDS011;46977;50.936;6.908;2023-09-30T15:21:37;3.20;;;1.10;;
61096;SDS011;46977;50.936;6.908;2023-09-30T15:24:40;2.55;;;1.20;;
61096;SDS011;46977;50.936;6.908;2023-09-30T15:27:48;1.65;;;0.82;;
61096;SDS011;46977;50.936;6.908;2023-09-30T15:30:52;1.65;;;0.93;;
61096;SDS011;46977;50.936;6.908;2023-09-30T15:33:59;5.07;;;1.05;;
61096;SDS011;46977;50.936;6.908;2023-09-30T15:37:06;2.22;;;1.15;;
61096;SDS011;46977;50.936;6.908;2023-09-30T15:40:13;2.63;;;0.80;;
61096;SDS011;46977;50.936;6.908;2023-09-30T15:43:20;2.72;;;1.10;;
61096;SDS011;46977;50.936;6.908;2023-09-30T15:46:25;2.92;;;1.20;;
61096;SDS011;46977;50.936;6.908;2023-09-30T15:49:32;3.17;;;1.20;;
61096;SDS011;46977;50.936;6.908;2023-09-30T15:52:46;3.17;;;1.90;;
61096;SDS011;46977;50.936;6.908;2023-09-30T16:00:18;2.55;;;1.00;;
61096;SDS011;46977;50.936;6.908;2023-09-30T16:03:32;3.22;;;1.30;;
61096;SDS011;46977;50.936;6.908;2023-09-30T16:06:38;2.95;;;1.50;;
61096;SDS011;46977;50.936;6.908;2023-09-30T16:09:43;3.60;;;2.05;;
61096;SDS011;46977;50.936;6.908;2023-09-30T16:12:48;6.07;;;3.10;;
61096;SDS011;46977;50.936;6.908;2023-09-30T16:15:51;2.60;;;1.30;;
61096;SDS011;46977;50.936;6.908;2023-09-30T16:18:59;3.15;;;1.27;;
61096;SDS011;46977;50.936;6.908;2023-09-30T16:22:02;3.97;;;2.10;;
61096;SDS011;46977;50.936;6.908;2023-09-30T16:26:18;4.25;;;2.15;;
61096;SDS011;46977;50.936;6.908;2023-09-30T16:29:30;2.45;;;1.50;;
61096;SDS011;46977;50.936;6.908;2023-09-30T16:32:44;2.90;;;1.35;;
61096;SDS011;46977;50.936;6.908;2023-09-30T16:35:49;3.97;;;1.45;;
61096;SDS011;46977;50.936;6.908;2023-09-30T16:38:54;2.85;;;1.13;;
61096;SDS011;46977;50.936;6.908;2023-09-30T16:41:58;3.40;;;1.42;;
61096;SDS011;46977;50.936;6.908;2023-09-30T16:45:01;3.70;;;1.33;;
61096;SDS011;46977;50.936;6.908;2023-09-30T16:48:05;2.10;;;1.15;;
61096;SDS011;46977;50.936;6.908;2023-09-30T16:51:08;5.13;;;1.20;;
61096;SDS011;46977;50.936;6.908;2023-09-30T16:54:12;2.95;;;1.63;;
61096;SDS011;46977;50.936;6.908;2023-09-30T16:57:17;2.38;;;1.27;;
61096;SDS011;46977;50.936;6.908;2023-09-30T17:00:24;6.20;;;1.30;;
61096;SDS011;46977;50.936;6.908;2023-09-30T17:03:28;3.17;;;1.33;;
61096;SDS011;46977;50.936;6.908;2023-09-30T17:06:31;4.32;;;1.60;;
61096;SDS011;46977;50.936;6.908;2023-09-30T17:09:34;3.47;;;1.70;;
61096;SDS011;46977;50.936;6.908;2023-09-30T17:12:39;2.97;;;2.35;;
61096;SDS011;46977;50.936;6.908;2023-09-30T17:15:41;5.13;;;2.10;;
61096;SDS011;46977;50.936;6.908;2023-09-30T17:18:44;5.18;;;2.03;;
61096;SDS011;46977;50.936;6.908;2023-09-30T17:21:48;4.43;;;1.58;;
61096;SDS011;46977;50.936;6.908;2023-09-30T17:24:50;2.78;;;2.45;;
61096;SDS011;46977;50.936;6.908;2023-09-30T17:27:54;4.90;;;2.42;;
61096;SDS011;46977;50.936;6.908;2023-09-30T17:31:16;3.78;;;1.65;;
61096;SDS011;46977;50.936;6.908;2023-09-30T17:34:19;5.05;;;2.30;;
61096;SDS011;46977;50.936;6.908;2023-09-30T17:37:23;3.10;;;1.80;;
61096;SDS011;46977;50.936;6.908;2023-09-30T17:40:25;4.50;;;2.03;;
61096;SDS011;46977;50.936;6.908;2023-09-30T17:43:32;4.03;;;2.33;;
61096;SDS011;46977;50.936;6.908;2023-09-30T17:46:34;4.53;;;2.30;;
61096;SDS011;46977;50.936;6.908;2023-09-30T17:49:37;3.65;;;2.08;;
61096;SDS011;46977;50.936;6.908;2023-09-30T17:52:43;5.18;;;2.50;;
61096;SDS011;46977;50.936;6.908;2023-09-30T17:55:45;2.63;;;1.98;;
61096;SDS011;46977;50.936;6.908;2023-09-30T17:58:49;6.30;;;2.75;;
61096;SDS011;46977;50.936;6.908;2023-09-30T18:01:51;5.65;;;2.63;;
61096;SDS011;46977;50.936;6.908;2023-09-30T18:04:56;4.93;;;2.72;;
61096;SDS011;46977;50.936;6.908;2023-09-30T18:07:59;4.13;;;2.20;;
61096;SDS011;46977;50.936;6.908;2023-09-30T18:11:09;5.53;;;2.70;;
61096;SDS011;46977;50.936;6.908;2023-09-30T18:14:13;4.20;;;2.53;;
61096;SDS011;46977;50.936;6.908;2023-09-30T18:17:18;4.60;;;2.70;;
61096;SDS011;46977;50.936;6.908;2023-09-30T18:20:21;4.22;;;2.38;;
61096;SDS011;46977;50.936;6.908;2023-09-30T18:23:24;6.47;;;2.85;;
61096;SDS011;46977;50.936;6.908;2023-09-30T18:26:33;6.00;;;2.75;;
61096;SDS011;46977;50.936;6.908;2023-09-30T18:29:39;4.00;;;2.40;;
61096;SDS011;46977;50.936;6.908;2023-09-30T18:32:42;4.20;;;2.53;;
61096;SDS011;46977;50.936;6.908;2023-09-30T18:35:50;6.30;;;2.78;;
61096;SDS011;46977;50.936;6.908;2023-09-30T18:39:01;4.68;;;2.90;;
61096;SDS011;46977;50.936;6.908;2023-09-30T18:42:25;4.22;;;2.60;;
61096;SDS011;46977;50.936;6.908;2023-09-30T18:49:31;4.97;;;3.05;;
61096;SDS011;46977;50.936;6.908;2023-09-30T18:52:34;6.20;;;3.03;;
61096;SDS011;46977;50.936;6.908;2023-09-30T18:55:39;6.05;;;3.67;;
61096;SDS011;46977;50.936;6.908;2023-09-30T18:58:42;9.23;;;5.25;;
61096;SDS011;46977;50.936;6.908;2023-09-30T19:01:44;6.57;;;3.60;;
61096;SDS011;46977;50.936;6.908;2023-09-30T19:04:48;4.90;;;3.55;;
61096;SDS011;46977;50.936;6.908;2023-09-30T19:07:51;5.32;;;3.50;;
61096;SDS011;46977;50.936;6.908;2023-09-30T19:10:59;10.27;;;4.53;;
61096;SDS011;46977;50.936;6.908;2023-09-30T19:14:02;5.13;;;3.65;;
61096;SDS011;46977;50.936;6.908;2023-09-30T19:17:08;7.30;;;3.58;;
61096;SDS011;46977;50.936;6.908;2023-09-30T19:20:12;10.90;;;6.10;;
61096;SDS011;46977;50.936;6.908;2023-09-30T19:23:18;6.50;;;3.75;;
61096;SDS011;46977;50.936;6.908;2023-09-30T19:26:20;5.22;;;3.85;;